Flight Track Log - Related Links

Times and Time Zones

All times are in EDT time to prevent confusion due to time zone crossing. See the N762NC flight status page for this flight to view local times or setup timezone preferences in your user account.

Time Position Orientation Groundspeed Altitude Reporting Facility
EDT Latitude Longitude Course Direction KTS MPH feet Rate Location/Type
Mon 06:06:52 PM 33.6661 -84.4731 348° North 441 507 3,000  Level Atlanta Center
Mon 06:07:52 PM 33.7186 -84.4258 37° Northeast 255 293 4,600 2,100 Climbing Atlanta Center
Mon 06:08:52 PM 33.7731 -84.3536 48° Northeast 251 289 7,200 2,550 Climbing Atlanta Center
Mon 06:09:00 PM 34.0642 -84.5288 349° North  Level FlightAware Approximate
Mon 06:09:52 PM 33.8358 -84.2839 43° Northeast 288 331 9,700  Level Atlanta Center
Mon 06:10:00 PM 34.1653 -84.5567 347° North  Level FlightAware Approximate
Mon 06:10:52 PM 33.9236 -84.2492 18° North 330 380 9,900  Level Atlanta Center
Mon 06:11:00 PM 34.2717 -84.5852 348° North  Level FlightAware Approximate
Mon 06:11:52 PM 34.0069 -84.2592 354° North 377 434 9,900  Level Atlanta Center
Mon 06:12:52 PM 34.0922 -84.3347 324° Northwest 377 434 9,900 100 Level Atlanta Center
Mon 06:13:52 PM 34.1819 -84.4106 325° Northwest 390 449 10,100 950 Climbing Atlanta Center
Mon 06:14:52 PM 34.2694 -84.4861 324° Northwest 390 449 11,800 1,200 Climbing Atlanta Center
Mon 06:15:52 PM 34.3692 -84.5372 337° Northwest 385 443 12,500 1,250 Climbing Atlanta Center
Mon 06:16:52 PM 34.4778 -84.5731 345° North 397 457 14,300 1,750 Climbing Atlanta Center
Mon 06:17:52 PM 34.5881 -84.6167 342° North 411 473 16,000 1,500 Climbing Atlanta Center
Mon 06:18:52 PM 34.7111 -84.6631 343° North 416 479 17,300 1,300 Climbing Atlanta Center
Mon 06:19:52 PM 34.8297 -84.6867 351° North 422 486 18,600 1,250 Climbing Atlanta Center
Mon 06:20:52 PM 34.9528 -84.7206 347° North 433 498 19,800 1,200 Climbing Atlanta Center
Mon 06:21:52 PM 35.0758 -84.7494 349° North 443 510 21,000 1,050 Climbing Atlanta Center
Mon 06:22:52 PM 35.2028 -84.7733 351° North 449 517 21,900 1,000 Climbing Atlanta Center
Mon 06:23:52 PM 35.3300 -84.8075 348° North 455 524 23,000 1,150 Climbing Atlanta Center
Mon 06:24:52 PM 35.4592 -84.8342 350° North 460 529 24,200 1,300 Climbing Atlanta Center
Mon 06:25:52 PM 35.5839 -84.8764 345° North 465 535 25,600 750 Climbing Atlanta Center
Mon 06:26:52 PM 35.7025 -84.9286 340° North 465 535 25,700 -500 Climbing Atlanta Center
Mon 06:27:52 PM 35.8314 -84.9789 342° North 466 536 24,600 -800 Descending Atlanta Center
Mon 06:28:52 PM 35.9503 -85.0108 348° North 474 545 24,100 -252 Descending Atlanta Center
Mon 06:30:15 PM 36.1203 -85.0631 346° North 465 535 24,000 -41 Descending Indianapolis Center
Mon 06:31:17 PM 36.2431 -85.0881 351° North 448 516 24,000  Level Indianapolis Center
Mon 06:32:18 PM 36.3903 -85.1111 353° North 445 512 24,000  Level Indianapolis Center
Mon 06:33:20 PM 36.5044 -85.1567 342° North 433 498 24,000  Level Indianapolis Center
Mon 06:34:22 PM 36.6236 -85.1792 351° North 435 501 24,000  Level Indianapolis Center
Mon 06:35:23 PM 36.7486 -85.1403 14° North 462 532 24,000 -49 Level Indianapolis Center
Mon 06:36:25 PM 36.8742 -85.1147 North 456 525 23,900 -435 Descending Indianapolis Center
Mon 06:37:27 PM 37.0011 -85.0903 North 459 528 23,100 -1,171 Descending Indianapolis Center
Mon 06:38:28 PM 37.1425 -85.0781 North 462 532 21,500 -2,098 Descending Indianapolis Center
Mon 06:39:30 PM 37.2639 -85.0508 10° North 443 510 18,800 -2,098 Descending Indianapolis Center
Mon 06:40:31 PM 37.3789 -85.0264 10° North 419 482 17,200 -1,610 Descending Indianapolis Center
Mon 06:41:33 PM 37.4928 -85.0064 North 413 475 15,500 -1,645 Descending Indianapolis Center
Mon 06:42:35 PM 37.6047 -85.0108 358° North 402 463 13,800 -1,561 Descending Indianapolis Center
Mon 06:43:36 PM 37.7161 -85.0147 358° North 400 460 12,300 -1,366 Descending Indianapolis Center
Mon 06:44:38 PM 37.8275 -85.0258 355° North 348 400 11,000 -1,317 Descending Indianapolis Center
Mon 06:45:39 PM 37.9108 -85.0453 350° North 316 364 9,600 -1,467 Descending Indianapolis Center
Mon 06:46:53 PM 37.9997 -85.0678 349° North 290 334 7,700 -1,368 Descending Indianapolis Center
Mon 06:47:55 PM 38.0772 -85.0889 348° North 286 329 6,500 -829 Descending Indianapolis Center
Mon 06:48:56 PM 38.1197 -85.1589 308° West 258 297 6,000 -244 Descending Indianapolis Center
Mon 06:49:58 PM 38.1669 -85.2322 309° West 255 293 6,000  Level Indianapolis Center
Mon 06:51:00 PM 38.2147 -85.3108 308° West 278 320 6,000  Level Indianapolis Center
Mon 06:52:01 PM 38.2678 -85.3869 312° West 284 327 6,000 -537 Level Indianapolis Center
Mon 06:53:03 PM 38.2983 -85.4753 294° West 281 323 4,900 -1,171 Descending Indianapolis Center
Mon 06:54:04 PM 38.3144 -85.5683 282° West 274 315 3,600 -927 Descending Indianapolis Center
Mon 06:55:06 PM 38.3122 -85.6697 268° West 254 292 3,000 -484 Descending Indianapolis Center
Mon 06:56:08 PM 38.2922 -85.7286 247° West 235 270 2,600 -387 Descending Indianapolis Center

Login

Don't have an account? Register now (free) for customized features, flight alerts, and more!